sensor_id;sensor_type;location;lat;lon;timestamp;pressure;altitude;pressure_sealevel;temperature;humidity
34566;BME280;20803;42.676;26.348;2022-10-16T00:00:16;99385.94;;;12.27;74.03
34566;BME280;20803;42.676;26.348;2022-10-16T00:02:42;99381.44;;;12.47;71.99
34566;BME280;20803;42.676;26.348;2022-10-16T00:05:07;99380.22;;;12.52;72.22
34566;BME280;20803;42.676;26.348;2022-10-16T00:07:33;99382.25;;;12.48;71.81
34566;BME280;20803;42.676;26.348;2022-10-16T00:09:58;99386.22;;;12.47;72.53
34566;BME280;20803;42.676;26.348;2022-10-16T00:12:23;99375.47;;;12.45;70.73
34566;BME280;20803;42.676;26.348;2022-10-16T00:14:49;99375.22;;;12.22;75.29
34566;BME280;20803;42.676;26.348;2022-10-16T00:17:14;99375.69;;;12.10;76.43
34566;BME280;20803;42.676;26.348;2022-10-16T00:19:40;99367.00;;;12.01;77.59
34566;BME280;20803;42.676;26.348;2022-10-16T00:22:05;99374.56;;;11.97;79.65
34566;BME280;20803;42.676;26.348;2022-10-16T00:24:30;99386.97;;;11.85;79.98
34566;BME280;20803;42.676;26.348;2022-10-16T00:26:56;99381.03;;;11.79;80.95
34566;BME280;20803;42.676;26.348;2022-10-16T00:29:21;99366.34;;;11.75;81.88
34566;BME280;20803;42.676;26.348;2022-10-16T00:31:47;99377.06;;;11.73;82.24
34566;BME280;20803;42.676;26.348;2022-10-16T00:34:12;99378.66;;;11.74;81.89
34566;BME280;20803;42.676;26.348;2022-10-16T00:36:37;99381.03;;;11.69;82.33
34566;BME280;20803;42.676;26.348;2022-10-16T00:39:03;99373.91;;;11.61;83.07
34566;BME280;20803;42.676;26.348;2022-10-16T00:41:31;99383.47;;;11.53;83.96
34566;BME280;20803;42.676;26.348;2022-10-16T00:44:03;99379.13;;;11.41;85.81
34566;BME280;20803;42.676;26.348;2022-10-16T00:46:37;99379.16;;;11.30;87.26
34566;BME280;20803;42.676;26.348;2022-10-16T00:51:49;99379.59;;;11.08;89.32
34566;BME280;20803;42.676;26.348;2022-10-16T00:54:20;99376.03;;;11.07;89.50
34566;BME280;20803;42.676;26.348;2022-10-16T00:56:47;99374.84;;;11.08;89.30
34566;BME280;20803;42.676;26.348;2022-10-16T00:59:33;99380.00;;;11.06;88.23
34566;BME280;20803;42.676;26.348;2022-10-16T01:02:00;99384.38;;;11.07;88.02
34566;BME280;20803;42.676;26.348;2022-10-16T01:04:26;99387.94;;;11.22;87.23
34566;BME280;20803;42.676;26.348;2022-10-16T01:09:47;99385.56;;;11.20;87.12
34566;BME280;20803;42.676;26.348;2022-10-16T01:17:19;99387.16;;;11.21;87.54
34566;BME280;20803;42.676;26.348;2022-10-16T01:22:25;99397.47;;;11.14;87.92
34566;BME280;20803;42.676;26.348;2022-10-16T01:24:54;99402.25;;;11.13;87.25
34566;BME280;20803;42.676;26.348;2022-10-16T01:27:26;99404.25;;;11.09;87.21
34566;BME280;20803;42.676;26.348;2022-10-16T01:29:57;99404.22;;;11.13;87.14
34566;BME280;20803;42.676;26.348;2022-10-16T01:35:41;99411.38;;;11.24;86.43
34566;BME280;20803;42.676;26.348;2022-10-16T01:38:21;99413.34;;;11.31;85.89
34566;BME280;20803;42.676;26.348;2022-10-16T01:40:53;99410.16;;;11.29;85.82
34566;BME280;20803;42.676;26.348;2022-10-16T01:43:33;99412.94;;;11.32;85.78
34566;BME280;20803;42.676;26.348;2022-10-16T01:46:01;99411.75;;;11.30;86.18
34566;BME280;20803;42.676;26.348;2022-10-16T01:48:26;99416.94;;;11.28;86.34
34566;BME280;20803;42.676;26.348;2022-10-16T01:51:01;99415.34;;;11.20;87.27
34566;BME280;20803;42.676;26.348;2022-10-16T01:53:29;99408.19;;;11.12;87.49
34566;BME280;20803;42.676;26.348;2022-10-16T01:55:58;99423.72;;;11.09;88.02
34566;BME280;20803;42.676;26.348;2022-10-16T01:58:25;99412.19;;;11.00;88.40
34566;BME280;20803;42.676;26.348;2022-10-16T02:00:52;99417.75;;;11.00;88.30
34566;BME280;20803;42.676;26.348;2022-10-16T02:03:20;99412.19;;;11.00;88.21
34566;BME280;20803;42.676;26.348;2022-10-16T02:05:54;99419.72;;;10.99;88.57
34566;BME280;20803;42.676;26.348;2022-10-16T02:08:22;99421.31;;;10.93;89.00
34566;BME280;20803;42.676;26.348;2022-10-16T02:10:49;99411.81;;;10.91;88.85
34566;BME280;20803;42.676;26.348;2022-10-16T02:13:44;99415.75;;;10.93;88.92
34566;BME280;20803;42.676;26.348;2022-10-16T02:16:12;99414.16;;;10.92;89.21
34566;BME280;20803;42.676;26.348;2022-10-16T02:18:39;99430.84;;;10.92;88.94
34566;BME280;20803;42.676;26.348;2022-10-16T02:21:18;99416.56;;;10.94;88.91
34566;BME280;20803;42.676;26.348;2022-10-16T02:24:06;99430.47;;;10.90;88.62
34566;BME280;20803;42.676;26.348;2022-10-16T02:29:39;99430.06;;;10.95;86.69
34566;BME280;20803;42.676;26.348;2022-10-16T02:32:07;99430.06;;;10.99;86.32
34566;BME280;20803;42.676;26.348;2022-10-16T02:34:34;99445.97;;;11.02;84.82
34566;BME280;20803;42.676;26.348;2022-10-16T02:37:01;99427.28;;;11.06;84.82
34566;BME280;20803;42.676;26.348;2022-10-16T02:39:29;99440.38;;;11.06;85.99
34566;BME280;20803;42.676;26.348;2022-10-16T02:41:55;99451.50;;;10.98;85.61
34566;BME280;20803;42.676;26.348;2022-10-16T02:44:21;99456.28;;;11.05;84.15
34566;BME280;20803;42.676;26.348;2022-10-16T02:46:46;99461.44;;;11.10;83.14
34566;BME280;20803;42.676;26.348;2022-10-16T02:49:11;99459.88;;;11.02;84.88
34566;BME280;20803;42.676;26.348;2022-10-16T02:51:37;99459.06;;;10.98;84.73
34566;BME280;20803;42.676;26.348;2022-10-16T02:54:03;99453.13;;;10.96;84.79
34566;BME280;20803;42.676;26.348;2022-10-16T02:56:28;99466.63;;;10.90;85.03
34566;BME280;20803;42.676;26.348;2022-10-16T02:58:55;99464.22;;;10.89;84.80
34566;BME280;20803;42.676;26.348;2022-10-16T03:01:20;99468.59;;;10.86;85.06
34566;BME280;20803;42.676;26.348;2022-10-16T03:03:46;99467.81;;;10.89;84.83
34566;BME280;20803;42.676;26.348;2022-10-16T03:06:11;99472.97;;;10.91;84.05
34566;BME280;20803;42.676;26.348;2022-10-16T03:08:37;99478.94;;;10.96;83.01
34566;BME280;20803;42.676;26.348;2022-10-16T03:11:02;99476.97;;;10.97;83.33
34566;BME280;20803;42.676;26.348;2022-10-16T03:13:27;99489.63;;;10.87;83.92
34566;BME280;20803;42.676;26.348;2022-10-16T03:15:53;99480.13;;;11.17;79.79
34566;BME280;20803;42.676;26.348;2022-10-16T03:18:18;99487.66;;;11.06;81.58
34566;BME280;20803;42.676;26.348;2022-10-16T03:20:44;99486.88;;;10.94;81.96
34566;BME280;20803;42.676;26.348;2022-10-16T03:23:09;99487.25;;;10.86;82.59
34566;BME280;20803;42.676;26.348;2022-10-16T03:25:35;99495.19;;;10.70;84.08
34566;BME280;20803;42.676;26.348;2022-10-16T03:28:00;99485.25;;;10.65;85.14
34566;BME280;20803;42.676;26.348;2022-10-16T03:30:26;99486.41;;;10.57;86.53
34566;BME280;20803;42.676;26.348;2022-10-16T03:32:51;99486.81;;;10.48;86.99
34566;BME280;20803;42.676;26.348;2022-10-16T03:35:22;99478.81;;;10.43;87.30
34566;BME280;20803;42.676;26.348;2022-10-16T03:37:49;99496.69;;;10.46;87.47
34566;BME280;20803;42.676;26.348;2022-10-16T03:40:15;99499.06;;;10.44;87.71
34566;BME280;20803;42.676;26.348;2022-10-16T03:42:42;99502.66;;;10.41;87.99
34566;BME280;20803;42.676;26.348;2022-10-16T03:45:08;99504.63;;;10.37;88.29
34566;BME280;20803;42.676;26.348;2022-10-16T03:47:33;99507.75;;;10.28;88.61
34566;BME280;20803;42.676;26.348;2022-10-16T03:49:59;99515.72;;;10.33;88.67
34566;BME280;20803;42.676;26.348;2022-10-16T03:52:25;99522.06;;;10.34;88.47
34566;BME280;20803;42.676;26.348;2022-10-16T03:54:51;99510.94;;;10.37;87.95
34566;BME280;20803;42.676;26.348;2022-10-16T03:57:16;99510.97;;;10.41;86.34
34566;BME280;20803;42.676;26.348;2022-10-16T03:59:42;99510.59;;;10.46;86.07
34566;BME280;20803;42.676;26.348;2022-10-16T04:02:07;99509.00;;;10.45;86.43
34566;BME280;20803;42.676;26.348;2022-10-16T04:04:33;99506.59;;;10.43;85.98
34566;BME280;20803;42.676;26.348;2022-10-16T04:06:59;99504.25;;;10.45;85.75
34566;BME280;20803;42.676;26.348;2022-10-16T04:09:25;99503.81;;;10.43;85.55
34566;BME280;20803;42.676;26.348;2022-10-16T04:11:51;99498.28;;;10.43;86.17
34566;BME280;20803;42.676;26.348;2022-10-16T04:14:16;99503.06;;;10.46;85.14
34566;BME280;20803;42.676;26.348;2022-10-16T04:16:41;99496.31;;;10.47;85.89
34566;BME280;20803;42.676;26.348;2022-10-16T04:19:07;99509.00;;;10.45;86.70
34566;BME280;20803;42.676;26.348;2022-10-16T04:21:32;99490.31;;;10.38;87.22
34566;BME280;20803;42.676;26.348;2022-10-16T04:23:58;99504.22;;;10.35;87.42
34566;BME280;20803;42.676;26.348;2022-10-16T04:26:23;99504.97;;;10.32;87.12
34566;BME280;20803;42.676;26.348;2022-10-16T04:28:48;99511.72;;;10.27;87.31
34566;BME280;20803;42.676;26.348;2022-10-16T04:31:14;99506.16;;;10.24;88.67
34566;BME280;20803;42.676;26.348;2022-10-16T04:33:42;99515.63;;;10.19;88.39
34566;BME280;20803;42.676;26.348;2022-10-16T04:36:08;99507.28;;;10.15;89.08
34566;BME280;20803;42.676;26.348;2022-10-16T04:38:33;99523.63;;;10.24;88.78
34566;BME280;20803;42.676;26.348;2022-10-16T04:40:59;99519.72;;;10.46;87.57
34566;BME280;20803;42.676;26.348;2022-10-16T04:43:25;99520.94;;;10.52;87.85
34566;BME280;20803;42.676;26.348;2022-10-16T04:45:51;99526.94;;;10.65;87.62
34566;BME280;20803;42.676;26.348;2022-10-16T04:48:17;99525.41;;;10.92;86.35
34566;BME280;20803;42.676;26.348;2022-10-16T04:50:43;99532.19;;;11.23;83.77
34566;BME280;20803;42.676;26.348;2022-10-16T04:53:08;99527.41;;;11.66;81.52
34566;BME280;20803;42.676;26.348;2022-10-16T04:55:34;99532.50;;;12.10;80.43
34566;BME280;20803;42.676;26.348;2022-10-16T04:57:59;99527.31;;;12.16;77.18
34566;BME280;20803;42.676;26.348;2022-10-16T05:00:25;99533.94;;;12.54;74.65
34566;BME280;20803;42.676;26.348;2022-10-16T05:02:50;99528.91;;;12.97;74.61
34566;BME280;20803;42.676;26.348;2022-10-16T05:05:16;99532.13;;;13.51;71.96
34566;BME280;20803;42.676;26.348;2022-10-16T05:07:42;99551.38;;;13.38;68.18
34566;BME280;20803;42.676;26.348;2022-10-16T05:10:07;99552.34;;;13.65;66.51
34566;BME280;20803;42.676;26.348;2022-10-16T05:12:33;99542.63;;;14.18;64.86
34566;BME280;20803;42.676;26.348;2022-10-16T05:14:58;99554.69;;;14.49;61.66
34566;BME280;20803;42.676;26.348;2022-10-16T05:17:24;99551.00;;;14.86;59.69
34566;BME280;20803;42.676;26.348;2022-10-16T05:19:50;99555.88;;;14.82;57.23
34566;BME280;20803;42.676;26.348;2022-10-16T05:22:15;99553.97;;;15.29;55.51
34566;BME280;20803;42.676;26.348;2022-10-16T05:24:41;99551.34;;;15.68;54.38
34566;BME280;20803;42.676;26.348;2022-10-16T05:27:06;99555.56;;;15.57;53.48
34566;BME280;20803;42.676;26.348;2022-10-16T05:29:32;99556.31;;;15.84;53.08
34566;BME280;20803;42.676;26.348;2022-10-16T05:31:57;99552.25;;;16.08;53.60
34566;BME280;20803;42.676;26.348;2022-10-16T05:34:23;99553.34;;;16.34;51.42
34566;BME280;20803;42.676;26.348;2022-10-16T05:36:48;99557.88;;;16.48;50.37
34566;BME280;20803;42.676;26.348;2022-10-16T05:39:15;99562.91;;;16.37;51.15
34566;BME280;20803;42.676;26.348;2022-10-16T05:41:40;99566.88;;;16.59;50.54
34566;BME280;20803;42.676;26.348;2022-10-16T05:44:06;99575.16;;;16.66;50.01
34566;BME280;20803;42.676;26.348;2022-10-16T05:46:32;99570.97;;;16.94;48.49
34566;BME280;20803;42.676;26.348;2022-10-16T05:48:57;99568.25;;;17.42;47.76
34566;BME280;20803;42.676;26.348;2022-10-16T05:51:23;99574.97;;;17.65;46.58
34566;BME280;20803;42.676;26.348;2022-10-16T05:53:49;99563.97;;;17.38;46.86
34566;BME280;20803;42.676;26.348;2022-10-16T05:56:15;99569.16;;;17.56;46.31
34566;BME280;20803;42.676;26.348;2022-10-16T05:58:41;99570.09;;;17.49;46.72
34566;BME280;20803;42.676;26.348;2022-10-16T06:01:10;99575.47;;;17.60;46.10
34566;BME280;20803;42.676;26.348;2022-10-16T06:03:36;99572.22;;;17.09;47.25
34566;BME280;20803;42.676;26.348;2022-10-16T06:06:10;99582.34;;;17.07;47.27
34566;BME280;20803;42.676;26.348;2022-10-16T06:08:36;99575.53;;;16.88;47.29
34566;BME280;20803;42.676;26.348;2022-10-16T06:11:06;99586.59;;;17.31;46.18
34566;BME280;20803;42.676;26.348;2022-10-16T06:13:32;99583.00;;;16.55;47.50
34566;BME280;20803;42.676;26.348;2022-10-16T06:15:59;99581.84;;;16.72;46.86
34566;BME280;20803;42.676;26.348;2022-10-16T06:18:26;99580.41;;;16.84;46.46
34566;BME280;20803;42.676;26.348;2022-10-16T06:20:52;99584.16;;;17.49;45.45
34566;BME280;20803;42.676;26.348;2022-10-16T06:23:18;99596.72;;;17.93;43.98
34566;BME280;20803;42.676;26.348;2022-10-16T06:25:43;99594.72;;;17.94;44.34
34566;BME280;20803;42.676;26.348;2022-10-16T06:28:08;99596.34;;;17.42;44.77
34566;BME280;20803;42.676;26.348;2022-10-16T06:30:34;99598.06;;;17.56;44.77
34566;BME280;20803;42.676;26.348;2022-10-16T06:32:59;99604.22;;;17.83;44.64
34566;BME280;20803;42.676;26.348;2022-10-16T06:35:25;99605.34;;;17.70;43.81
34566;BME280;20803;42.676;26.348;2022-10-16T06:37:52;99607.53;;;17.10;45.09
34566;BME280;20803;42.676;26.348;2022-10-16T06:40:18;99604.97;;;17.52;44.30
34566;BME280;20803;42.676;26.348;2022-10-16T06:42:44;99611.50;;;17.81;44.37
34566;BME280;20803;42.676;26.348;2022-10-16T06:45:10;99616.88;;;17.92;43.40
34566;BME280;20803;42.676;26.348;2022-10-16T06:47:36;99608.63;;;17.84;43.43
34566;BME280;20803;42.676;26.348;2022-10-16T06:50:01;99600.66;;;18.28;42.25
34566;BME280;20803;42.676;26.348;2022-10-16T06:52:30;99615.00;;;18.62;41.87
34566;BME280;20803;42.676;26.348;2022-10-16T06:54:55;99617.88;;;18.75;42.82
34566;BME280;20803;42.676;26.348;2022-10-16T06:57:21;99625.53;;;18.75;41.24
34566;BME280;20803;42.676;26.348;2022-10-16T06:59:47;99628.03;;;18.85;40.24
34566;BME280;20803;42.676;26.348;2022-10-16T07:02:12;99628.09;;;19.11;40.08
34566;BME280;20803;42.676;26.348;2022-10-16T07:04:37;99622.53;;;18.94;40.47
34566;BME280;20803;42.676;26.348;2022-10-16T07:07:03;99627.91;;;19.30;39.97
34566;BME280;20803;42.676;26.348;2022-10-16T07:09:28;99614.94;;;19.33;39.65
34566;BME280;20803;42.676;26.348;2022-10-16T07:11:53;99627.03;;;19.46;39.56
34566;BME280;20803;42.676;26.348;2022-10-16T07:14:20;99623.59;;;19.13;39.64
34566;BME280;20803;42.676;26.348;2022-10-16T07:16:46;99635.47;;;18.92;39.61
34566;BME280;20803;42.676;26.348;2022-10-16T07:19:13;99627.09;;;19.30;39.50
34566;BME280;20803;42.676;26.348;2022-10-16T07:21:40;99628.91;;;19.36;38.24
34566;BME280;20803;42.676;26.348;2022-10-16T07:24:10;99636.97;;;19.09;38.16
34566;BME280;20803;42.676;26.348;2022-10-16T07:26:37;99642.53;;;19.13;39.31
34566;BME280;20803;42.676;26.348;2022-10-16T07:29:05;99630.47;;;19.25;37.42
34566;BME280;20803;42.676;26.348;2022-10-16T07:31:30;99621.00;;;19.06;38.45
34566;BME280;20803;42.676;26.348;2022-10-16T07:33:58;99631.03;;;18.49;38.42
34566;BME280;20803;42.676;26.348;2022-10-16T07:36:24;99619.81;;;18.33;38.56
34566;BME280;20803;42.676;26.348;2022-10-16T07:38:49;99629.63;;;17.96;39.20
34566;BME280;20803;42.676;26.348;2022-10-16T07:41:18;99625.66;;;17.94;39.25
34566;BME280;20803;42.676;26.348;2022-10-16T07:43:52;99632.56;;;17.21;40.07
34566;BME280;20803;42.676;26.348;2022-10-16T07:46:19;99645.81;;;17.20;40.30
34566;BME280;20803;42.676;26.348;2022-10-16T07:48:45;99637.16;;;17.31;39.42
34566;BME280;20803;42.676;26.348;2022-10-16T07:51:14;99637.06;;;17.34;40.06
34566;BME280;20803;42.676;26.348;2022-10-16T07:53:40;99640.22;;;17.56;39.90
34566;BME280;20803;42.676;26.348;2022-10-16T07:56:06;99641.47;;;17.71;39.55
34566;BME280;20803;42.676;26.348;2022-10-16T07:58:33;99647.88;;;17.88;39.91
34566;BME280;20803;42.676;26.348;2022-10-16T08:01:06;99636.91;;;17.94;38.53
34566;BME280;20803;42.676;26.348;2022-10-16T08:03:32;99626.63;;;17.71;38.75
34566;BME280;20803;42.676;26.348;2022-10-16T08:05:59;99630.34;;;17.48;39.36
34566;BME280;20803;42.676;26.348;2022-10-16T08:08:24;99640.44;;;17.45;39.46
34566;BME280;20803;42.676;26.348;2022-10-16T08:10:50;99634.47;;;17.43;39.09
34566;BME280;20803;42.676;26.348;2022-10-16T08:13:16;99631.72;;;17.40;38.66
34566;BME280;20803;42.676;26.348;2022-10-16T08:15:44;99627.69;;;17.25;38.79
34566;BME280;20803;42.676;26.348;2022-10-16T08:18:11;99628.28;;;17.32;39.59
34566;BME280;20803;42.676;26.348;2022-10-16T08:20:37;99618.97;;;17.19;38.84
34566;BME280;20803;42.676;26.348;2022-10-16T08:23:03;99636.44;;;17.27;38.45
34566;BME280;20803;42.676;26.348;2022-10-16T08:25:29;99622.13;;;17.21;38.96
34566;BME280;20803;42.676;26.348;2022-10-16T08:27:54;99639.84;;;17.18;39.18
34566;BME280;20803;42.676;26.348;2022-10-16T08:30:21;99639.31;;;17.07;38.74
34566;BME280;20803;42.676;26.348;2022-10-16T08:32:47;99635.81;;;17.19;39.08
34566;BME280;20803;42.676;26.348;2022-10-16T08:35:13;99645.03;;;17.20;38.25
34566;BME280;20803;42.676;26.348;2022-10-16T08:37:40;99640.41;;;17.29;38.83
34566;BME280;20803;42.676;26.348;2022-10-16T08:40:07;99642.00;;;17.30;38.27
34566;BME280;20803;42.676;26.348;2022-10-16T08:50:31;99649.13;;;18.03;36.54
34566;BME280;20803;42.676;26.348;2022-10-16T08:52:58;99639.88;;;18.19;37.82
34566;BME280;20803;42.676;26.348;2022-10-16T08:55:43;99633.63;;;18.11;36.30
34566;BME280;20803;42.676;26.348;2022-10-16T08:58:16;99639.63;;;17.97;36.78
34566;BME280;20803;42.676;26.348;2022-10-16T09:00:45;99638.94;;;18.09;37.00
34566;BME280;20803;42.676;26.348;2022-10-16T09:03:33;99649.19;;;18.32;36.18
34566;BME280;20803;42.676;26.348;2022-10-16T09:08:51;99637.31;;;18.24;35.62
34566;BME280;20803;42.676;26.348;2022-10-16T09:16:55;99627.69;;;18.09;35.68
34566;BME280;20803;42.676;26.348;2022-10-16T09:19:39;99633.41;;;17.90;35.52
34566;BME280;20803;42.676;26.348;2022-10-16T09:22:27;99634.00;;;17.97;35.79
34566;BME280;20803;42.676;26.348;2022-10-16T09:24:56;99642.19;;;17.92;36.11
34566;BME280;20803;42.676;26.348;2022-10-16T09:27:25;99639.53;;;18.01;36.62
34566;BME280;20803;42.676;26.348;2022-10-16T09:29:51;99633.63;;;18.11;35.64
34566;BME280;20803;42.676;26.348;2022-10-16T09:32:20;99638.50;;;18.11;35.75
34566;BME280;20803;42.676;26.348;2022-10-16T09:34:49;99638.03;;;18.12;34.20
34566;BME280;20803;42.676;26.348;2022-10-16T09:37:18;99634.44;;;18.12;34.30
34566;BME280;20803;42.676;26.348;2022-10-16T09:39:50;99652.34;;;18.18;34.50
34566;BME280;20803;42.676;26.348;2022-10-16T09:42:25;99637.41;;;18.21;34.93
34566;BME280;20803;42.676;26.348;2022-10-16T09:44:52;99650.06;;;18.29;33.26
34566;BME280;20803;42.676;26.348;2022-10-16T09:47:23;99634.00;;;18.30;34.30
34566;BME280;20803;42.676;26.348;2022-10-16T09:49:54;99625.00;;;18.35;33.99
34566;BME280;20803;42.676;26.348;2022-10-16T09:52:20;99629.47;;;18.32;34.52
34566;BME280;20803;42.676;26.348;2022-10-16T09:54:53;99629.91;;;18.47;33.23
34566;BME280;20803;42.676;26.348;2022-10-16T09:57:20;99625.31;;;18.37;32.81
34566;BME280;20803;42.676;26.348;2022-10-16T09:59:54;99626.84;;;18.25;33.40
34566;BME280;20803;42.676;26.348;2022-10-16T10:04:53;99622.50;;;18.37;34.03
34566;BME280;20803;42.676;26.348;2022-10-16T10:07:42;99614.66;;;18.60;32.64
34566;BME280;20803;42.676;26.348;2022-10-16T10:10:41;99614.16;;;18.78;33.67
34566;BME280;20803;42.676;26.348;2022-10-16T10:13:21;99618.31;;;18.74;32.29
34566;BME280;20803;42.676;26.348;2022-10-16T10:15:47;99622.16;;;18.80;33.20
34566;BME280;20803;42.676;26.348;2022-10-16T10:18:20;99612.47;;;18.81;33.62
34566;BME280;20803;42.676;26.348;2022-10-16T10:21:01;99611.34;;;18.78;33.80
34566;BME280;20803;42.676;26.348;2022-10-16T10:23:28;99611.91;;;18.86;33.17
34566;BME280;20803;42.676;26.348;2022-10-16T10:26:14;99609.25;;;18.95;33.16
34566;BME280;20803;42.676;26.348;2022-10-16T10:29:09;99601.13;;;18.97;33.62
34566;BME280;20803;42.676;26.348;2022-10-16T10:31:43;99595.63;;;19.06;33.48
34566;BME280;20803;42.676;26.348;2022-10-16T10:40:38;99594.75;;;19.34;33.01
34566;BME280;20803;42.676;26.348;2022-10-16T10:43:15;99588.88;;;19.16;32.81
34566;BME280;20803;42.676;26.348;2022-10-16T10:45:46;99583.16;;;19.32;32.75
34566;BME280;20803;42.676;26.348;2022-10-16T10:48:29;99579.75;;;19.25;32.38
34566;BME280;20803;42.676;26.348;2022-10-16T10:51:07;99582.81;;;19.30;31.87
34566;BME280;20803;42.676;26.348;2022-10-16T10:53:50;99579.41;;;19.35;32.33
34566;BME280;20803;42.676;26.348;2022-10-16T11:07:04;99563.97;;;19.27;32.31
34566;BME280;20803;42.676;26.348;2022-10-16T11:09:42;99569.75;;;19.49;31.73
34566;BME280;20803;42.676;26.348;2022-10-16T11:12:15;99566.94;;;19.49;32.02
34566;BME280;20803;42.676;26.348;2022-10-16T11:15:03;99566.09;;;19.87;32.20
34566;BME280;20803;42.676;26.348;2022-10-16T11:17:39;99569.50;;;19.69;32.03
34566;BME280;20803;42.676;26.348;2022-10-16T11:20:26;99565.97;;;19.77;32.08
34566;BME280;20803;42.676;26.348;2022-10-16T11:22:57;99574.91;;;19.76;31.89
34566;BME280;20803;42.676;26.348;2022-10-16T11:28:11;99577.09;;;20.06;32.24
34566;BME280;20803;42.676;26.348;2022-10-16T11:30:49;99579.47;;;19.95;31.74
34566;BME280;20803;42.676;26.348;2022-10-16T11:41:45;99596.34;;;19.61;31.93
34566;BME280;20803;42.676;26.348;2022-10-16T11:49:34;99594.84;;;19.94;31.69
34566;BME280;20803;42.676;26.348;2022-10-16T11:54:49;99583.56;;;19.94;31.01
34566;BME280;20803;42.676;26.348;2022-10-16T11:57:42;99593.53;;;19.73;31.39
34566;BME280;20803;42.676;26.348;2022-10-16T12:00:25;99597.16;;;19.61;31.63
34566;BME280;20803;42.676;26.348;2022-10-16T12:03:11;99592.19;;;19.53;32.45
34566;BME280;20803;42.676;26.348;2022-10-16T12:05:55;99583.06;;;19.49;32.41
34566;BME280;20803;42.676;26.348;2022-10-16T12:08:23;99592.31;;;19.49;31.65
34566;BME280;20803;42.676;26.348;2022-10-16T12:10:49;99592.84;;;19.44;31.23
34566;BME280;20803;42.676;26.348;2022-10-16T12:13:31;99591.94;;;19.60;31.91
34566;BME280;20803;42.676;26.348;2022-10-16T12:18:30;99586.75;;;19.71;32.64
34566;BME280;20803;42.676;26.348;2022-10-16T12:21:00;99598.34;;;19.98;31.33
34566;BME280;20803;42.676;26.348;2022-10-16T12:23:53;99591.59;;;19.70;31.37
34566;BME280;20803;42.676;26.348;2022-10-16T12:26:29;99588.31;;;19.84;30.83
34566;BME280;20803;42.676;26.348;2022-10-16T12:28:55;99589.69;;;19.80;30.22
34566;BME280;20803;42.676;26.348;2022-10-16T12:31:43;99590.50;;;19.55;30.79
34566;BME280;20803;42.676;26.348;2022-10-16T12:34:38;99598.25;;;19.38;30.89
34566;BME280;20803;42.676;26.348;2022-10-16T12:39:44;99600.94;;;19.29;31.85
34566;BME280;20803;42.676;26.348;2022-10-16T12:44:51;99601.38;;;19.15;32.37
34566;BME280;20803;42.676;26.348;2022-10-16T12:49:58;99594.06;;;19.18;31.67
34566;BME280;20803;42.676;26.348;2022-10-16T12:52:37;99616.22;;;19.03;31.74
34566;BME280;20803;42.676;26.348;2022-10-16T12:55:05;99626.59;;;18.93;32.09
34566;BME280;20803;42.676;26.348;2022-10-16T13:11:24;99638.50;;;18.85;32.10
34566;BME280;20803;42.676;26.348;2022-10-16T13:25:02;99618.06;;;18.68;33.02
34566;BME280;20803;42.676;26.348;2022-10-16T13:28:08;99616.03;;;18.69;33.20
34566;BME280;20803;42.676;26.348;2022-10-16T13:33:17;99609.19;;;18.70;32.88
34566;BME280;20803;42.676;26.348;2022-10-16T13:35:50;99614.59;;;18.77;33.17
34566;BME280;20803;42.676;26.348;2022-10-16T13:38:21;99620.00;;;18.71;33.10
34566;BME280;20803;42.676;26.348;2022-10-16T13:40:57;99610.16;;;18.63;34.01
34566;BME280;20803;42.676;26.348;2022-10-16T13:43:38;99628.78;;;18.73;33.48
34566;BME280;20803;42.676;26.348;2022-10-16T13:46:13;99625.97;;;18.73;33.55
34566;BME280;20803;42.676;26.348;2022-10-16T13:48:39;99629.25;;;18.72;33.44
34566;BME280;20803;42.676;26.348;2022-10-16T13:51:14;99636.69;;;18.78;33.33
34566;BME280;20803;42.676;26.348;2022-10-16T13:53:41;99631.59;;;18.73;33.39
34566;BME280;20803;42.676;26.348;2022-10-16T13:56:10;99634.97;;;18.68;33.73
34566;BME280;20803;42.676;26.348;2022-10-16T13:58:36;99635.94;;;18.61;33.08
34566;BME280;20803;42.676;26.348;2022-10-16T14:01:04;99638.59;;;18.52;33.48
34566;BME280;20803;42.676;26.348;2022-10-16T14:03:32;99632.91;;;18.40;33.79
34566;BME280;20803;42.676;26.348;2022-10-16T14:06:00;99634.31;;;18.32;34.22
34566;BME280;20803;42.676;26.348;2022-10-16T14:08:29;99645.94;;;18.34;34.40
34566;BME280;20803;42.676;26.348;2022-10-16T14:11:01;99637.97;;;18.16;34.57
34566;BME280;20803;42.676;26.348;2022-10-16T14:15:52;99639.22;;;18.44;34.88
34566;BME280;20803;42.676;26.348;2022-10-16T14:18:24;99643.81;;;18.38;34.38
34566;BME280;20803;42.676;26.348;2022-10-16T14:20:50;99655.78;;;18.25;34.15
34566;BME280;20803;42.676;26.348;2022-10-16T14:23:23;99655.78;;;18.25;34.69
34566;BME280;20803;42.676;26.348;2022-10-16T14:25:49;99655.97;;;18.18;34.75
34566;BME280;20803;42.676;26.348;2022-10-16T14:28:22;99652.47;;;18.14;35.00
34566;BME280;20803;42.676;26.348;2022-10-16T14:30:52;99656.59;;;18.10;35.00
34566;BME280;20803;42.676;26.348;2022-10-16T14:33:30;99647.53;;;18.02;35.20
34566;BME280;20803;42.676;26.348;2022-10-16T14:36:01;99656.84;;;17.99;35.47
34566;BME280;20803;42.676;26.348;2022-10-16T14:38:27;99658.53;;;17.97;35.12
34566;BME280;20803;42.676;26.348;2022-10-16T14:40:57;99658.28;;;17.91;35.61
34566;BME280;20803;42.676;26.348;2022-10-16T14:43:42;99665.66;;;17.85;36.01
34566;BME280;20803;42.676;26.348;2022-10-16T14:46:16;99664.91;;;17.81;35.53
34566;BME280;20803;42.676;26.348;2022-10-16T14:48:44;99667.47;;;17.75;35.95
34566;BME280;20803;42.676;26.348;2022-10-16T14:51:15;99664.56;;;17.63;36.55
34566;BME280;20803;42.676;26.348;2022-10-16T14:53:41;99667.06;;;17.57;36.37
34566;BME280;20803;42.676;26.348;2022-10-16T14:56:21;99665.72;;;17.45;36.88